Time;durP1;ratioP1;P1;durP2;ratioP2;P2;SDS_P1;SDS_P2;PMS_P1;PMS_P2;Temp;Humidity;BMP_temperature;BMP_pressure;BME280_temperature;BME280_humidity;BME280_pressure;Samples;Min_cycle;Max_cycle;Signal;HPM_P1;HPM_P2
2023/09/26 00:02:01;;;;;;;11.55;7.63;;;;;;;;;;5050003;28;21267;-68
2023/09/26 00:04:27;;;;;;;9.90;6.47;;;;;;;;;;5068109;28;20056;-67
2023/09/26 00:06:57;;;;;;;8.93;6.80;;;;;;;;;;5072965;28;20057;-67
2023/09/26 00:09:23;;;;;;;12.13;8.27;;;;;;;;;;5073479;28;20131;-67
2023/09/26 00:11:49;;;;;;;10.82;7.97;;;;;;;;;;5074463;28;20063;-67
2023/09/26 00:14:15;;;;;;;13.05;9.10;;;;;;;;;;5055488;28;20119;-67
2023/09/26 00:16:41;;;;;;;12.68;8.80;;;;;;;;;;5072114;28;20056;-68
2023/09/26 00:19:07;;;;;;;11.32;8.35;;;;;;;;;;5056130;28;20057;-67
2023/09/26 00:21:33;;;;;;;12.85;9.73;;;;;;;;;;5073971;28;20623;-66
2023/09/26 00:24:02;;;;;;;13.48;8.98;;;;;;;;;;5038969;28;20056;-67
2023/09/26 00:26:28;;;;;;;12.82;9.10;;;;;;;;;;5055992;28;20056;-67
2023/09/26 00:28:54;;;;;;;13.60;8.77;;;;;;;;;;5072558;28;20125;-66
2023/09/26 00:31:20;;;;;;;13.52;8.35;;;;;;;;;;5052878;28;20052;-66
2023/09/26 00:33:47;;;;;;;13.77;9.18;;;;;;;;;;5073442;28;20044;-66
2023/09/26 00:36:13;;;;;;;10.48;7.97;;;;;;;;;;5039476;28;20082;-66
2023/09/26 00:38:39;;;;;;;11.52;8.75;;;;;;;;;;5039557;28;20513;-66
2023/09/26 00:41:08;;;;;;;12.45;9.45;;;;;;;;;;5054914;28;20562;-67
2023/09/26 00:43:38;;;;;;;15.80;9.55;;;;;;;;;;5071544;28;20071;-67
2023/09/26 00:46:05;;;;;;;14.07;8.48;;;;;;;;;;5054829;28;20565;-66
2023/09/26 00:48:31;;;;;;;12.38;8.38;;;;;;;;;;5056044;28;20060;-67
2023/09/26 00:50:58;;;;;;;12.68;8.85;;;;;;;;;;5073055;28;20052;-67
2023/09/26 00:53:24;;;;;;;10.45;8.23;;;;;;;;;;5050864;28;20106;-67
2023/09/26 00:55:51;;;;;;;9.43;7.82;;;;;;;;;;5073026;28;20063;-67
2023/09/26 00:58:18;;;;;;;13.25;9.13;;;;;;;;;;5068531;28;20049;-68
2023/09/26 01:00:52;;;;;;;12.40;8.98;;;;;;;;;;5066764;28;20114;-67
2023/09/26 01:03:19;;;;;;;14.40;8.75;;;;;;;;;;5051426;28;20392;-67
2023/09/26 01:05:45;;;;;;;13.75;9.48;;;;;;;;;;5072228;28;20059;-66
2023/09/26 01:08:11;;;;;;;13.95;9.95;;;;;;;;;;5051450;28;20403;-66
2023/09/26 01:10:37;;;;;;;12.98;9.35;;;;;;;;;;5072642;28;20052;-66
2023/09/26 01:13:04;;;;;;;11.77;8.70;;;;;;;;;;5070700;28;20060;-67
2023/09/26 01:15:36;;;;;;;11.35;8.88;;;;;;;;;;5072317;28;20057;-67
2023/09/26 01:18:03;;;;;;;10.45;8.23;;;;;;;;;;5068803;28;20403;-65
2023/09/26 01:20:29;;;;;;;13.45;9.68;;;;;;;;;;5071866;28;20063;-66
2023/09/26 01:22:56;;;;;;;13.02;9.25;;;;;;;;;;5071330;28;20052;-66
2023/09/26 01:25:22;;;;;;;12.50;10.57;;;;;;;;;;5072007;28;20092;-66
2023/09/26 01:27:48;;;;;;;13.40;10.05;;;;;;;;;;5070883;28;20052;-66
2023/09/26 01:30:15;;;;;;;15.07;10.50;;;;;;;;;;5072611;28;20048;-66
2023/09/26 01:32:41;;;;;;;14.35;9.50;;;;;;;;;;5072453;28;20177;-66
2023/09/26 01:35:07;;;;;;;13.82;9.23;;;;;;;;;;5071321;28;20056;-66
2023/09/26 01:37:33;;;;;;;13.02;10.43;;;;;;;;;;5069891;28;20392;-66
2023/09/26 01:39:59;;;;;;;16.27;10.60;;;;;;;;;;5071011;28;20060;-67
2023/09/26 01:42:25;;;;;;;13.73;10.48;;;;;;;;;;5070494;28;20189;-66
2023/09/26 01:44:51;;;;;;;14.90;10.75;;;;;;;;;;5072649;28;20057;-66
2023/09/26 01:47:28;;;;;;;13.75;9.48;;;;;;;;;;5067761;28;20584;-66
2023/09/26 01:49:54;;;;;;;14.00;8.50;;;;;;;;;;5063970;28;20051;-66
2023/09/26 01:52:20;;;;;;;13.52;9.25;;;;;;;;;;5069414;28;20060;-66
2023/09/26 01:54:46;;;;;;;12.95;8.85;;;;;;;;;;5063382;28;20049;-65
2023/09/26 01:57:12;;;;;;;11.90;9.95;;;;;;;;;;5068953;28;20124;-66
2023/09/26 01:59:39;;;;;;;14.98;10.70;;;;;;;;;;5071802;28;20052;-67
2023/09/26 02:02:05;;;;;;;13.23;10.45;;;;;;;;;;5053750;28;20123;-67
2023/09/26 02:04:31;;;;;;;14.40;10.55;;;;;;;;;;5053759;28;20105;-67
2023/09/26 02:06:57;;;;;;;12.90;10.38;;;;;;;;;;5052416;28;20056;-66
2023/09/26 02:09:24;;;;;;;13.30;10.50;;;;;;;;;;5069108;28;20049;-67
2023/09/26 02:11:50;;;;;;;14.98;10.60;;;;;;;;;;5052548;28;20056;-66
2023/09/26 02:14:16;;;;;;;19.25;11.90;;;;;;;;;;5069790;28;20467;-66
2023/09/26 02:16:42;;;;;;;17.20;12.55;;;;;;;;;;5070040;28;20084;-66
2023/09/26 02:19:09;;;;;;;12.95;9.73;;;;;;;;;;5053236;28;20049;-67
2023/09/26 02:21:35;;;;;;;13.77;10.80;;;;;;;;;;5070852;28;20064;-66
2023/09/26 02:24:01;;;;;;;18.25;11.43;;;;;;;;;;5070508;28;20189;-67
2023/09/26 02:26:27;;;;;;;15.27;12.18;;;;;;;;;;5070056;28;20123;-66
2023/09/26 02:28:53;;;;;;;12.77;10.35;;;;;;;;;;5071745;28;20087;-66
2023/09/26 02:31:19;;;;;;;13.55;10.30;;;;;;;;;;5070673;28;20079;-67
2023/09/26 02:33:45;;;;;;;13.32;11.18;;;;;;;;;;5071700;28;20797;-66
2023/09/26 02:36:11;;;;;;;12.90;10.38;;;;;;;;;;5071006;28;20095;-66
2023/09/26 02:38:37;;;;;;;16.63;12.02;;;;;;;;;;5053606;28;20055;-66
2023/09/26 02:41:03;;;;;;;13.82;11.23;;;;;;;;;;5052735;28;20048;-64
2023/09/26 02:43:29;;;;;;;12.73;10.60;;;;;;;;;;5071520;28;20048;-66
2023/09/26 02:45:55;;;;;;;15.23;11.13;;;;;;;;;;5053073;28;20059;-66
2023/09/26 02:48:21;;;;;;;14.88;10.95;;;;;;;;;;5033540;28;20049;-66
2023/09/26 02:50:47;;;;;;;15.02;12.15;;;;;;;;;;5051621;28;20061;-65
2023/09/26 02:53:13;;;;;;;13.45;11.23;;;;;;;;;;5049727;28;20412;-66
2023/09/26 02:55:43;;;;;;;13.20;9.95;;;;;;;;;;5065407;28;20510;-66
2023/09/26 02:58:09;;;;;;;13.53;11.17;;;;;;;;;;5066946;28;20049;-66
2023/09/26 03:00:35;;;;;;;14.43;11.45;;;;;;;;;;5070051;28;20303;-66
2023/09/26 03:03:01;;;;;;;13.68;10.10;;;;;;;;;;5048228;28;20142;-66
2023/09/26 03:05:27;;;;;;;16.10;11.02;;;;;;;;;;5067837;28;20080;-66
2023/09/26 03:07:53;;;;;;;19.13;12.52;;;;;;;;;;5056399;28;20108;-66
2023/09/26 03:10:20;;;;;;;14.45;11.10;;;;;;;;;;5063118;28;20048;-65
2023/09/26 03:12:46;;;;;;;14.88;10.90;;;;;;;;;;5055602;28;20060;-65
2023/09/26 03:15:12;;;;;;;19.67;10.50;;;;;;;;;;5050824;28;20076;-66
2023/09/26 03:17:38;;;;;;;13.48;11.38;;;;;;;;;;5060942;28;20056;-66
2023/09/26 03:20:06;;;;;;;14.27;11.25;;;;;;;;;;5050664;28;20878;-66
2023/09/26 03:22:32;;;;;;;19.30;12.32;;;;;;;;;;5040305;28;20059;-66
2023/09/26 03:24:58;;;;;;;16.95;11.30;;;;;;;;;;5052591;28;20092;-66
2023/09/26 03:27:24;;;;;;;18.38;12.00;;;;;;;;;;5068324;28;20056;-65
2023/09/26 03:29:51;;;;;;;15.50;11.30;;;;;;;;;;5036594;28;20049;-65
2023/09/26 03:32:17;;;;;;;13.90;11.20;;;;;;;;;;5055052;28;20136;-65
2023/09/26 03:34:43;;;;;;;16.20;12.73;;;;;;;;;;5066593;28;20057;-65
2023/09/26 03:37:09;;;;;;;14.70;11.13;;;;;;;;;;5063857;28;20629;-66
2023/09/26 03:39:35;;;;;;;17.88;11.45;;;;;;;;;;5062801;28;20575;-66
2023/09/26 03:42:01;;;;;;;17.58;12.20;;;;;;;;;;5067363;28;20049;-66
2023/09/26 03:44:27;;;;;;;18.55;11.43;;;;;;;;;;5059278;28;20404;-66
2023/09/26 03:46:53;;;;;;;14.23;11.25;;;;;;;;;;5068793;28;20061;-66
2023/09/26 03:49:19;;;;;;;15.23;10.82;;;;;;;;;;5059541;28;20041;-66
2023/09/26 03:51:45;;;;;;;16.90;11.27;;;;;;;;;;5068103;28;20504;-66
2023/09/26 03:54:11;;;;;;;14.13;10.30;;;;;;;;;;5038323;28;20057;-65
2023/09/26 03:56:37;;;;;;;16.83;10.55;;;;;;;;;;5050574;28;20053;-66
2023/09/26 03:59:03;;;;;;;13.77;10.20;;;;;;;;;;5054528;28;20045;-66
2023/09/26 04:01:29;;;;;;;16.75;11.27;;;;;;;;;;5071650;28;20082;-66
2023/09/26 04:03:56;;;;;;;13.88;10.80;;;;;;;;;;5041352;28;20064;-65
2023/09/26 04:06:22;;;;;;;12.02;9.90;;;;;;;;;;5067489;28;20621;-65
2023/09/26 04:08:48;;;;;;;14.18;10.18;;;;;;;;;;5051901;28;20060;-66
2023/09/26 04:11:14;;;;;;;15.00;11.43;;;;;;;;;;5052905;28;20130;-66
2023/09/26 04:13:41;;;;;;;17.45;12.60;;;;;;;;;;5054850;28;20500;-66
2023/09/26 04:16:07;;;;;;;17.73;11.13;;;;;;;;;;5057130;28;20182;-65
2023/09/26 04:18:33;;;;;;;12.98;10.32;;;;;;;;;;5053546;28;20481;-66
2023/09/26 04:21:03;;;;;;;14.55;10.07;;;;;;;;;;5052403;28;20088;-65
2023/09/26 04:23:29;;;;;;;14.60;9.98;;;;;;;;;;5050266;28;20104;-66
2023/09/26 04:25:55;;;;;;;15.70;11.60;;;;;;;;;;5048485;28;20103;-66
2023/09/26 04:28:21;;;;;;;14.75;12.93;;;;;;;;;;5050367;28;20080;-66
2023/09/26 04:30:47;;;;;;;16.50;11.27;;;;;;;;;;5053928;28;20056;-66
2023/09/26 04:33:14;;;;;;;16.45;11.85;;;;;;;;;;5052192;28;20064;-66
2023/09/26 04:35:40;;;;;;;16.73;11.90;;;;;;;;;;5052597;28;20055;-66
2023/09/26 04:38:06;;;;;;;15.98;11.90;;;;;;;;;;5052392;28;20408;-66
2023/09/26 04:40:33;;;;;;;13.98;11.18;;;;;;;;;;5040010;28;20054;-66
2023/09/26 04:43:01;;;;;;;16.77;12.13;;;;;;;;;;5033647;28;20548;-66
2023/09/26 04:45:30;;;;;;;17.15;12.48;;;;;;;;;;5049921;28;20135;-66
2023/09/26 04:48:00;;;;;;;14.40;11.47;;;;;;;;;;5053472;28;20081;-66
2023/09/26 04:50:27;;;;;;;16.60;12.77;;;;;;;;;;5051511;28;20301;-66
2023/09/26 04:52:53;;;;;;;18.00;14.63;;;;;;;;;;5051120;28;20053;-66
2023/09/26 04:55:19;;;;;;;17.98;13.27;;;;;;;;;;5045201;28;20148;-66
2023/09/26 04:57:45;;;;;;;18.15;13.48;;;;;;;;;;5051295;28;20053;-65
2023/09/26 05:00:11;;;;;;;17.73;13.13;;;;;;;;;;5050767;28;20515;-65
2023/09/26 05:02:37;;;;;;;18.95;13.15;;;;;;;;;;5054068;28;20056;-66
2023/09/26 05:05:04;;;;;;;26.08;15.13;;;;;;;;;;5069341;28;20051;-66
2023/09/26 05:07:30;;;;;;;16.63;13.65;;;;;;;;;;5072059;28;20052;-66
2023/09/26 05:09:57;;;;;;;21.08;14.82;;;;;;;;;;5054010;28;20144;-66
2023/09/26 05:12:23;;;;;;;20.02;13.98;;;;;;;;;;5071786;28;20091;-65
2023/09/26 05:14:49;;;;;;;18.75;15.20;;;;;;;;;;5056230;28;20139;-65
2023/09/26 05:17:15;;;;;;;17.35;13.23;;;;;;;;;;5053547;28;20499;-65
2023/09/26 05:19:41;;;;;;;20.40;15.23;;;;;;;;;;5070841;28;20052;-64
2023/09/26 05:22:07;;;;;;;20.60;15.90;;;;;;;;;;5072829;28;20056;-65
2023/09/26 05:24:33;;;;;;;17.83;14.18;;;;;;;;;;5069026;28;20411;-65
2023/09/26 05:26:59;;;;;;;21.42;15.20;;;;;;;;;;5054762;28;20118;-66
2023/09/26 05:29:25;;;;;;;19.02;14.52;;;;;;;;;;5053584;28;20048;-64
2023/09/26 05:31:51;;;;;;;17.38;14.00;;;;;;;;;;5055468;28;20098;-65
2023/09/26 05:34:17;;;;;;;16.17;14.23;;;;;;;;;;5067473;28;20061;-64
2023/09/26 05:36:43;;;;;;;18.48;14.60;;;;;;;;;;5067964;28;20056;-64
2023/09/26 05:39:10;;;;;;;20.10;15.05;;;;;;;;;;5072223;28;20181;-65
2023/09/26 05:41:36;;;;;;;20.63;14.20;;;;;;;;;;5072007;28;20063;-65
2023/09/26 05:44:02;;;;;;;22.40;14.77;;;;;;;;;;5053661;28;20079;-65
2023/09/26 05:46:29;;;;;;;18.02;13.65;;;;;;;;;;5054071;28;20105;-65
2023/09/26 05:48:55;;;;;;;21.05;15.02;;;;;;;;;;5071564;28;20053;-65
2023/09/26 05:51:21;;;;;;;19.85;15.45;;;;;;;;;;5069079;28;20059;-65
2023/09/26 05:53:47;;;;;;;20.10;15.57;;;;;;;;;;5068483;28;20048;-65
2023/09/26 05:56:13;;;;;;;27.92;14.95;;;;;;;;;;5087610;28;20143;-65
2023/09/26 05:58:39;;;;;;;18.40;15.48;;;;;;;;;;5071287;28;20048;-65
2023/09/26 06:01:11;;;;;;;24.73;14.85;;;;;;;;;;5068992;28;20061;-64
2023/09/26 06:03:37;;;;;;;21.67;14.77;;;;;;;;;;5064812;28;20072;-64
2023/09/26 06:06:03;;;;;;;23.40;17.00;;;;;;;;;;5050807;28;20049;-64
2023/09/26 06:08:29;;;;;;;18.50;14.32;;;;;;;;;;5052275;28;20045;-63
2023/09/26 06:10:56;;;;;;;20.83;14.23;;;;;;;;;;5049389;28;20124;-65
2023/09/26 06:13:22;;;;;;;23.33;15.93;;;;;;;;;;5051732;28;20282;-65
2023/09/26 06:15:48;;;;;;;20.95;15.20;;;;;;;;;;5051709;28;20159;-65
2023/09/26 06:18:14;;;;;;;19.50;14.02;;;;;;;;;;5051574;28;20045;-65
2023/09/26 06:20:44;;;;;;;19.23;15.02;;;;;;;;;;5049873;28;20084;-64
2023/09/26 06:23:10;;;;;;;19.58;15.50;;;;;;;;;;5058144;28;20115;-64
2023/09/26 06:25:36;;;;;;;18.15;14.30;;;;;;;;;;5040134;28;20087;-64
2023/09/26 06:28:02;;;;;;;19.55;15.52;;;;;;;;;;5048797;28;20140;-63
2023/09/26 06:30:29;;;;;;;20.65;16.05;;;;;;;;;;5032923;28;20091;-66
2023/09/26 06:32:55;;;;;;;20.55;14.95;;;;;;;;;;5050226;28;20052;-64
2023/09/26 06:35:21;;;;;;;24.38;14.65;;;;;;;;;;5050419;28;20049;-65
2023/09/26 06:37:47;;;;;;;21.65;15.82;;;;;;;;;;5051237;28;20045;-64
2023/09/26 06:40:13;;;;;;;27.10;16.50;;;;;;;;;;5033130;28;20064;-65
2023/09/26 06:42:39;;;;;;;20.85;15.45;;;;;;;;;;5051236;28;20057;-65
2023/09/26 06:45:06;;;;;;;21.38;15.32;;;;;;;;;;5050051;28;20904;-65
2023/09/26 06:47:33;;;;;;;24.92;15.63;;;;;;;;;;5065021;28;20051;-65
2023/09/26 06:49:59;;;;;;;22.95;14.98;;;;;;;;;;5032379;28;20129;-65
2023/09/26 06:52:25;;;;;;;25.55;15.95;;;;;;;;;;5050713;28;20453;-65
2023/09/26 06:54:51;;;;;;;23.58;14.38;;;;;;;;;;5050888;28;20052;-65
2023/09/26 06:57:20;;;;;;;20.73;14.45;;;;;;;;;;5051184;28;20064;-66
2023/09/26 06:59:52;;;;;;;22.23;13.82;;;;;;;;;;5050796;28;20527;-65
2023/09/26 07:02:20;;;;;;;20.45;14.65;;;;;;;;;;5022827;28;20510;-65
2023/09/26 07:04:52;;;;;;;16.98;13.63;;;;;;;;;;5051679;28;20186;-65
2023/09/26 07:07:18;;;;;;;18.40;13.07;;;;;;;;;;5055410;28;20055;-65
2023/09/26 07:09:44;;;;;;;18.40;14.15;;;;;;;;;;5055895;28;20048;-65
2023/09/26 07:12:10;;;;;;;21.70;13.63;;;;;;;;;;5054484;28;20048;-66
2023/09/26 07:14:37;;;;;;;20.95;14.63;;;;;;;;;;5020434;28;20451;-65
2023/09/26 07:17:03;;;;;;;20.63;13.80;;;;;;;;;;5054825;28;20052;-63
2023/09/26 07:19:32;;;;;;;18.15;13.75;;;;;;;;;;5054439;28;20051;-65
2023/09/26 07:21:58;;;;;;;20.98;14.02;;;;;;;;;;5054043;28;20471;-64
2023/09/26 07:24:25;;;;;;;19.60;13.90;;;;;;;;;;5040521;28;20080;-65
2023/09/26 07:26:51;;;;;;;17.30;13.48;;;;;;;;;;5020379;28;20056;-65
2023/09/26 07:29:17;;;;;;;17.00;13.05;;;;;;;;;;5054005;28;20060;-65
2023/09/26 07:31:44;;;;;;;18.63;12.77;;;;;;;;;;5062495;28;20060;-65
2023/09/26 07:34:10;;;;;;;19.63;12.63;;;;;;;;;;5074613;28;20056;-66
2023/09/26 07:36:36;;;;;;;19.52;12.57;;;;;;;;;;5058244;28;20124;-65
2023/09/26 07:39:03;;;;;;;19.45;12.23;;;;;;;;;;5054604;28;20411;-63
2023/09/26 07:41:30;;;;;;;17.98;11.90;;;;;;;;;;5054672;28;20061;-65
2023/09/26 07:43:56;;;;;;;16.45;11.30;;;;;;;;;;5020296;28;20782;-66
2023/09/26 07:46:23;;;;;;;19.65;12.18;;;;;;;;;;5053673;28;20057;-65
2023/09/26 07:48:49;;;;;;;18.50;12.00;;;;;;;;;;5054609;28;20045;-65
2023/09/26 07:51:16;;;;;;;19.77;11.80;;;;;;;;;;5036462;28;20057;-66
2023/09/26 07:53:42;;;;;;;16.25;11.95;;;;;;;;;;5054750;28;20516;-65
2023/09/26 07:56:09;;;;;;;16.40;12.45;;;;;;;;;;5050048;28;20106;-66
2023/09/26 07:58:35;;;;;;;17.30;11.90;;;;;;;;;;5035589;28;20037;-66
2023/09/26 08:01:06;;;;;;;14.30;11.20;;;;;;;;;;5053446;28;20271;-65
2023/09/26 08:03:32;;;;;;;14.85;11.10;;;;;;;;;;5059637;28;20076;-65
2023/09/26 08:06:02;;;;;;;17.13;12.35;;;;;;;;;;5074863;28;20131;-66
2023/09/26 08:08:31;;;;;;;19.58;12.20;;;;;;;;;;5074626;28;20052;-67
2023/09/26 08:11:05;;;;;;;18.35;12.93;;;;;;;;;;5071156;28;20157;-66
2023/09/26 08:13:32;;;;;;;16.70;11.25;;;;;;;;;;5062803;28;20037;-66
2023/09/26 08:15:58;;;;;;;16.05;11.45;;;;;;;;;;5056477;28;20048;-66
2023/09/26 08:18:24;;;;;;;18.63;10.85;;;;;;;;;;5074024;28;20087;-66
2023/09/26 08:20:55;;;;;;;21.85;11.43;;;;;;;;;;5089281;28;20514;-66
2023/09/26 08:23:21;;;;;;;16.60;11.02;;;;;;;;;;5094386;28;20099;-66
2023/09/26 08:25:48;;;;;;;16.02;11.20;;;;;;;;;;5094333;28;20095;-66
2023/09/26 08:28:14;;;;;;;16.42;11.60;;;;;;;;;;5093630;28;20059;-66
2023/09/26 08:30:40;;;;;;;12.95;9.77;;;;;;;;;;5083251;28;20060;-66
2023/09/26 08:33:06;;;;;;;19.08;10.20;;;;;;;;;;5073784;28;20084;-66
2023/09/26 08:35:32;;;;;;;13.80;9.88;;;;;;;;;;5055071;28;20092;-66
2023/09/26 08:37:58;;;;;;;17.27;13.10;;;;;;;;;;5056047;28;20060;-66
2023/09/26 08:40:25;;;;;;;16.83;10.43;;;;;;;;;;5073422;28;20087;-66
2023/09/26 08:42:52;;;;;;;16.55;10.63;;;;;;;;;;5073230;28;20088;-68
2023/09/26 08:45:18;;;;;;;15.80;10.45;;;;;;;;;;5075893;28;20056;-67
2023/09/26 08:47:44;;;;;;;14.05;9.82;;;;;;;;;;5080120;28;20065;-66
2023/09/26 08:50:11;;;;;;;14.07;9.55;;;;;;;;;;5073446;28;20136;-67
2023/09/26 08:52:37;;;;;;;13.02;8.88;;;;;;;;;;5073905;28;20059;-67
2023/09/26 08:55:03;;;;;;;16.13;10.10;;;;;;;;;;5054784;28;20131;-65
2023/09/26 08:57:31;;;;;;;14.20;10.13;;;;;;;;;;5072934;28;20052;-68
2023/09/26 09:00:00;;;;;;;13.00;8.98;;;18.00;99.90;;;;;;5073633;28;20088;-67
2023/09/26 09:02:27;;;;;;;12.52;9.32;;;;;;;;;;5073232;28;20055;-67
2023/09/26 09:04:54;;;;;;;10.75;8.57;;;;;;;;;;5073176;28;20056;-67
2023/09/26 09:07:20;;;;;;;15.45;9.18;;;;;;;;;;5074830;28;20404;-66
2023/09/26 09:10:05;;;;;;;14.30;8.57;;;;;;;;;;5054836;28;20067;-67
2023/09/26 09:12:31;;;;;;;12.90;9.10;;;;;;;;;;5073393;28;20064;-68
2023/09/26 09:14:57;;;;;;;13.63;8.80;;;;;;;;;;5073301;28;20137;-67
2023/09/26 09:17:23;;;;;;;12.90;9.10;;;;;;;;;;5072365;28;20044;-68
2023/09/26 09:19:51;;;;;;;12.30;8.63;;;;;;;;;;5073108;28;20110;-67
2023/09/26 09:22:18;;;;;;;11.85;8.55;;;;;;;;;;5072938;28;20078;-67
2023/09/26 09:24:51;;;;;;;13.13;8.07;;;;;;;;;;5053096;28;20060;-68
2023/09/26 09:27:31;;;;;;;12.77;8.05;;;19.10;99.90;;;;;;5054745;28;20145;-67
2023/09/26 09:30:08;;;;;;;14.43;8.15;;;19.00;99.90;;;;;;5055355;28;20226;-67
2023/09/26 09:32:37;;;;;;;9.25;7.43;;;;;;;;;;5053545;28;20488;-68
2023/09/26 09:35:04;;;;;;;12.88;8.07;;;;;;;;;;5072506;28;20059;-67
2023/09/26 09:37:30;;;;;;;11.35;7.00;;;;;;;;;;5072876;28;20049;-68
2023/09/26 09:39:56;;;;;;;12.68;7.95;;;;;;;;;;5071487;28;20055;-68
2023/09/26 09:42:22;;;;;;;10.55;6.88;;;;;;;;;;5072165;28;20052;-68
2023/09/26 09:44:49;;;;;;;9.43;7.25;;;;;;;;;;5072619;28;20510;-67
2023/09/26 09:47:23;;;;;;;10.13;7.03;;;;;;;;;;5069932;28;20055;-67
2023/09/26 09:49:50;;;;;;;14.50;6.88;;;19.70;99.90;;;;;;5066923;28;20058;-68
2023/09/26 09:52:19;;;;;;;10.68;7.47;;;20.00;99.90;;;;;;5072306;28;20063;-69
2023/09/26 09:54:45;;;;;;;9.95;6.43;;;19.80;99.90;;;;;;5072117;28;20052;-69
2023/09/26 09:57:14;;;;;;;9.07;6.57;;;20.00;99.90;;;;;;5054496;28;20126;-68
2023/09/26 09:59:41;;;;;;;9.43;6.57;;;;;;;;;;5072333;28;20048;-68
2023/09/26 10:02:10;;;;;;;11.55;6.10;;;20.60;99.90;;;;;;5071170;28;20056;-68
2023/09/26 10:04:39;;;;;;;11.80;5.95;;;20.40;99.90;;;;;;5051229;28;20056;-68
2023/09/26 10:07:06;;;;;;;12.27;6.72;;;;;;;;;;5070841;28;20453;-68
2023/09/26 10:09:32;;;;;;;10.30;6.40;;;20.90;99.90;;;;;;5064261;28;20137;-68
2023/09/26 10:11:59;;;;;;;9.23;5.90;;;20.90;99.90;;;;;;5065530;28;20048;-68
2023/09/26 10:14:29;;;;;;;9.23;5.80;;;;;;;;;;5053983;28;20061;-69
2023/09/26 10:16:57;;;;;;;10.00;6.40;;;21.10;99.90;;;;;;5072229;28;20052;-68
2023/09/26 10:19:25;;;;;;;11.18;5.70;;;;;;;;;;5071052;28;20291;-68
2023/09/26 10:21:52;;;;;;;9.73;6.07;;;;;;;;;;5053588;28;20132;-67
2023/09/26 10:24:18;;;;;;;9.73;5.82;;;;;;;;;;5034944;28;20057;-69
2023/09/26 10:26:58;;;;;;;11.30;5.70;;;20.80;99.90;;;;;;5071172;28;20056;-68
2023/09/26 10:29:28;;;;;;;9.85;6.10;;;;;;;;;;5071801;28;20048;-69
2023/09/26 10:32:04;;;;;;;10.30;5.50;;;20.60;99.90;;;;;;5071171;28;20076;-69
2023/09/26 10:34:31;;;;;;;12.80;5.28;;;;;;;;;;5053440;28;20058;-68
2023/09/26 10:36:59;;;;;;;8.20;5.40;;;;;;;;;;5071140;28;20060;-69
2023/09/26 10:39:41;;;;;;;12.18;5.85;;;20.90;99.90;;;;;;5069611;28;20515;-68
2023/09/26 10:42:39;;;;;;;8.75;5.82;;;20.70;99.90;;;;;;5070635;28;20156;-69
2023/09/26 10:45:06;;;;;;;14.38;6.15;;;20.90;99.90;;;;;;5066321;28;20056;-70
2023/09/26 10:47:36;;;;;;;9.52;6.35;;;;;;;;;;5054285;28;20055;-68
2023/09/26 10:50:03;;;;;;;11.25;6.00;;;;;;;;;;5052998;28;20048;-66
2023/09/26 10:52:31;;;;;;;10.13;6.75;;;;;;;;;;5070403;28;20048;-70
2023/09/26 10:54:57;;;;;;;10.30;6.47;;;;;;;;;;5052910;28;20056;-70
2023/09/26 10:57:26;;;;;;;10.27;6.70;;;20.70;99.90;;;;;;5053590;28;20504;-69
2023/09/26 10:59:52;;;;;;;11.43;6.40;;;;;;;;;;5069743;28;20044;-68
2023/09/26 11:02:18;;;;;;;10.52;6.10;;;;;;;;;;5073786;28;20083;-69
2023/09/26 11:04:44;;;;;;;13.23;6.65;;;;;;;;;;5049680;28;20459;-69
2023/09/26 11:07:11;;;;;;;12.80;6.43;;;;;;;;;;5046754;28;20571;-71
2023/09/26 11:09:41;;;;;;;9.90;6.30;;;20.40;99.90;;;;;;5028412;28;20057;-70
2023/09/26 11:12:08;;;;;;;11.82;6.95;;;;;;;;;;5041241;28;20467;-69
2023/09/26 11:14:34;;;;;;;10.13;6.88;;;;;;;;;;5050189;28;20072;-69
2023/09/26 11:17:00;;;;;;;9.43;6.68;;;20.30;99.90;;;;;;5050214;28;20102;-70
2023/09/26 11:19:29;;;;;;;12.00;6.85;;;20.10;99.90;;;;;;5045135;28;20053;-70
2023/09/26 11:21:55;;;;;;;13.35;7.32;;;;;;;;;;5052409;28;20053;-69
2023/09/26 11:24:31;;;;;;;10.60;7.38;;;20.30;99.90;;;;;;5053166;28;20060;-70
2023/09/26 11:27:08;;;;;;;14.80;7.20;;;20.60;99.90;;;;;;5034480;28;20644;-69
2023/09/26 11:29:35;;;;;;;11.65;7.32;;;;;;;;;;5045948;28;20098;-70
2023/09/26 11:32:06;;;;;;;13.10;7.72;;;;;;;;;;5033514;28;20055;-70
2023/09/26 11:34:34;;;;;;;11.05;7.30;;;21.00;99.90;;;;;;5050177;28;20123;-70
2023/09/26 11:37:01;;;;;;;13.13;7.25;;;;;;;;;;5024540;28;20061;-69
2023/09/26 11:39:27;;;;;;;13.55;7.60;;;;;;;;;;5021647;28;20511;-70
2023/09/26 11:42:07;;;;;;;15.05;6.60;;;21.40;99.90;;;;;;5032551;28;20060;-70
2023/09/26 11:44:34;;;;;;;11.40;6.97;;;;;;;;;;5050979;28;20571;-67
2023/09/26 11:47:02;;;;;;;10.82;6.53;;;;;;;;;;5051086;28;20399;-70
2023/09/26 11:49:30;;;;;;;11.32;6.78;;;;;;;;;;5053915;28;20147;-70
2023/09/26 11:51:56;;;;;;;11.70;6.88;;;21.70;99.90;;;;;;5050515;28;20060;-70
2023/09/26 11:54:22;;;;;;;8.60;5.95;;;21.90;99.90;;;;;;5049185;28;20055;-71
2023/09/26 11:56:48;;;;;;;11.98;6.70;;;22.10;99.90;;;;;;5052195;28;20106;-71
2023/09/26 11:59:15;;;;;;;10.85;6.22;;;;;;;;;;5052812;28;20060;-71
2023/09/26 12:01:42;;;;;;;8.95;5.82;;;22.10;99.90;;;;;;5051367;28;20102;-71
2023/09/26 12:04:11;;;;;;;9.32;6.00;;;21.70;99.90;;;;;;5034791;28;20205;-71
2023/09/26 12:06:38;;;;;;;13.30;6.07;;;;;;;;;;5047589;28;20103;-71
2023/09/26 12:09:09;;;;;;;9.25;6.55;;;22.40;99.90;;;;;;5030319;28;20071;-72
2023/09/26 12:11:36;;;;;;;10.52;6.03;;;22.30;99.90;;;;;;5051609;28;20132;-70
2023/09/26 12:14:04;;;;;;;12.68;6.22;;;22.50;99.90;;;;;;5049404;28;20517;-68
2023/09/26 12:16:31;;;;;;;11.02;6.13;;;22.40;99.90;;;;;;5051962;28;20546;-71
2023/09/26 12:18:57;;;;;;;10.05;6.00;;;;;;;;;;5033598;28;20049;-71
2023/09/26 12:21:23;;;;;;;11.30;6.60;;;;;;;;;;5053180;28;20061;-72
2023/09/26 12:23:49;;;;;;;12.15;5.85;;;22.60;99.90;;;;;;5053286;28;20041;-71
2023/09/26 12:26:15;;;;;;;10.55;5.97;;;;;;;;;;5036025;28;20065;-70
2023/09/26 12:28:44;;;;;;;11.95;6.22;;;;;;;;;;5036706;28;20056;-70
2023/09/26 12:31:10;;;;;;;8.52;5.30;;;22.40;99.90;;;;;;5052722;28;20053;-72
2023/09/26 12:33:39;;;;;;;8.98;5.55;;;22.50;99.90;;;;;;5065264;28;20114;-71
2023/09/26 12:36:07;;;;;;;13.23;6.38;;;22.20;99.90;;;;;;5052720;28;20513;-71
2023/09/26 12:38:33;;;;;;;9.85;5.97;;;22.50;99.90;;;;;;5036112;28;20052;-72
2023/09/26 12:40:59;;;;;;;8.85;5.35;;;;;;;;;;5052206;28;20049;-71
2023/09/26 12:43:26;;;;;;;9.80;6.32;;;;;;;;;;5052891;28;20102;-70
2023/09/26 12:45:52;;;;;;;9.80;6.25;;;;;;;;;;5053751;28;20096;-71
2023/09/26 12:48:18;;;;;;;13.90;6.25;;;22.60;99.90;;;;;;5050352;28;20646;-72
2023/09/26 12:50:45;;;;;;;12.68;6.35;;;;;;;;;;5051417;28;20053;-71
2023/09/26 12:53:11;;;;;;;10.68;5.68;;;;;;;;;;5051513;28;20068;-71
2023/09/26 12:55:37;;;;;;;11.23;5.35;;;;;;;;;;5052018;28;20048;-71
2023/09/26 12:58:03;;;;;;;8.90;5.47;;;;;;;;;;5052403;28;20049;-67
2023/09/26 13:00:29;;;;;;;13.88;5.88;;;;;;;;;;5053469;28;20124;-71
2023/09/26 13:02:55;;;;;;;10.48;5.90;;;;;;;;;;5052324;28;20103;-70
2023/09/26 13:05:24;;;;;;;10.55;6.30;;;22.80;99.90;;;;;;5054497;28;20264;-70
2023/09/26 13:07:50;;;;;;;9.15;5.57;;;;;;;;;;5072657;28;20048;-71
2023/09/26 13:10:16;;;;;;;9.13;5.72;;;;;;;;;;5037881;28;20059;-71
2023/09/26 13:12:42;;;;;;;12.38;6.95;;;;;;;;;;5074195;28;20095;-70
2023/09/26 13:15:08;;;;;;;9.30;6.32;;;22.40;99.90;;;;;;5072893;28;20086;-71
2023/09/26 13:17:35;;;;;;;10.15;6.10;;;22.40;99.90;;;;;;5073517;28;20045;-73
2023/09/26 13:20:01;;;;;;;11.63;6.60;;;;;;;;;;5070373;28;20553;-72
2023/09/26 13:22:27;;;;;;;14.95;6.90;;;;;;;;;;5038505;28;20143;-71
2023/09/26 13:24:53;;;;;;;11.07;5.65;;;;;;;;;;5071551;28;20060;-70
2023/09/26 13:27:19;;;;;;;9.77;5.80;;;;;;;;;;5045189;28;20060;-70
2023/09/26 13:29:45;;;;;;;9.70;6.20;;;;;;;;;;5051469;28;20447;-71
2023/09/26 13:32:11;;;;;;;8.65;5.82;;;;;;;;;;5058636;28;20056;-72
2023/09/26 13:34:39;;;;;;;11.65;6.32;;;;;;;;;;5072580;28;20055;-71
2023/09/26 13:37:05;;;;;;;11.88;6.35;;;;;;;;;;5072202;28;20060;-69
2023/09/26 13:39:31;;;;;;;9.35;5.90;;;22.00;99.90;;;;;;5071909;28;20408;-71
2023/09/26 13:41:57;;;;;;;11.32;5.68;;;;;;;;;;5072924;28;20052;-72
2023/09/26 13:44:23;;;;;;;10.45;6.38;;;;;;;;;;5051432;28;20088;-73
2023/09/26 13:46:49;;;;;;;10.57;5.78;;;;;;;;;;5071348;28;20052;-71
2023/09/26 13:49:15;;;;;;;9.07;5.90;;;;;;;;;;5053442;28;20060;-71
2023/09/26 13:51:41;;;;;;;9.68;5.53;;;21.90;99.90;;;;;;5051049;28;20052;-71
2023/09/26 13:54:09;;;;;;;10.88;5.95;;;;;;;;;;5083842;28;20416;-70
2023/09/26 13:56:34;;;;;;;13.88;7.40;;;22.00;99.90;;;;;;5038028;28;20532;-71
2023/09/26 13:59:03;;;;;;;9.95;6.40;;;21.80;99.90;;;;;;5054623;28;20057;-70
2023/09/26 14:01:29;;;;;;;9.95;5.95;;;;;;;;;;5050677;28;20045;-71
2023/09/26 14:03:57;;;;;;;12.35;6.25;;;;;;;;;;5065020;28;20056;-70
2023/09/26 14:06:23;;;;;;;11.07;6.15;;;;;;;;;;5034375;28;20061;-71
2023/09/26 14:08:52;;;;;;;10.63;6.68;;;;;;;;;;5026652;28;20123;-71